createdAt,value
2016-08-05T00:00:19.532Z,67.23
2016-08-05T00:01:20.233Z,67.75
2016-08-05T00:02:20.209Z,67.94
2016-08-05T00:03:20.196Z,67.94
2016-08-05T00:04:20.181Z,67.94
2016-08-05T00:05:20.164Z,67.55
2016-08-05T00:06:20.149Z,67.75
2016-08-05T00:07:20.135Z,67.46
2016-08-05T00:08:20.116Z,67.65
2016-08-05T00:09:20.103Z,67.55
2016-08-05T00:10:20.084Z,67.55
2016-08-05T00:11:20.068Z,67.46
2016-08-05T00:12:20.057Z,67.52
2016-08-05T00:13:20.040Z,67.94
2016-08-05T00:14:20.024Z,67.55
2016-08-05T00:15:20.008Z,67.62
2016-08-05T00:16:19.994Z,67.52
2016-08-05T00:17:19.975Z,67.62
2016-08-05T00:18:19.962Z,67.55
2016-08-05T00:19:19.954Z,68.04
2016-08-05T00:20:19.936Z,67.85
2016-08-05T00:21:19.917Z,67.94
2016-08-05T00:22:19.899Z,67.94
2016-08-05T00:23:19.879Z,67.62
2016-08-05T00:24:19.873Z,67.94
2016-08-05T00:26:19.840Z,67.75
2016-08-05T00:27:19.822Z,67.85
2016-08-05T00:28:19.811Z,67.85
2016-08-05T00:29:19.079Z,67.75
2016-08-05T00:30:19.772Z,67.65
2016-08-05T00:31:19.769Z,67.71
2016-08-05T00:32:19.746Z,68.62
2016-08-05T00:33:19.729Z,68.68
2016-08-05T00:34:19.719Z,68.62
2016-08-05T00:35:18.987Z,68.43
2016-08-05T00:36:19.681Z,68.62
2016-08-05T00:37:19.668Z,68.81
2016-08-05T00:38:19.650Z,68.33
2016-08-05T00:39:19.636Z,68.33
2016-08-05T00:41:19.614Z,69.29
2016-08-05T00:42:19.590Z,68.59
2016-08-05T00:43:19.577Z,68.91
2016-08-05T00:44:19.556Z,68.97
2016-08-05T00:45:19.553Z,68.91
2016-08-05T00:46:19.528Z,69
2016-08-05T00:47:19.507Z,69
2016-08-05T00:48:19.495Z,67.94
2016-08-05T00:49:19.483Z,68.81
2016-08-05T00:50:19.466Z,68.91
2016-08-05T00:51:19.443Z,68.04
2016-08-05T00:52:18.724Z,69.1
2016-08-05T00:53:19.421Z,68.71
2016-08-05T00:54:19.400Z,69.07
2016-08-05T00:56:19.370Z,69
2016-08-05T00:57:19.357Z,69.1
2016-08-05T00:58:19.334Z,68.49
2016-08-05T00:59:19.321Z,69.07
2016-08-05T01:00:19.309Z,68.81
2016-08-05T01:01:19.295Z,68.62
2016-08-05T01:02:19.275Z,68.81
2016-08-05T01:03:19.257Z,69
2016-08-05T01:04:19.250Z,68.81
2016-08-05T01:05:19.231Z,69.2
2016-08-05T01:06:19.213Z,69
2016-08-05T01:07:18.486Z,68.81
2016-08-05T01:08:19.189Z,68.81
2016-08-05T01:09:19.167Z,69
2016-08-05T01:11:19.132Z,69.2
2016-08-05T01:12:19.124Z,68.81
2016-08-05T01:13:19.107Z,68.62
2016-08-05T01:14:19.092Z,68.71
2016-08-05T01:15:19.077Z,68.81
2016-08-05T01:16:19.064Z,69
2016-08-05T01:17:19.044Z,68.81
2016-08-05T01:18:19.030Z,69.1
2016-08-05T01:19:19.011Z,68.91
2016-08-05T01:20:19.004Z,68.81
2016-08-05T01:21:18.978Z,69.2
2016-08-05T01:22:18.969Z,68.13
2016-08-05T01:23:18.952Z,69.29
2016-08-05T01:24:18.940Z,68.23
2016-08-05T01:26:18.905Z,69.29
2016-08-05T01:27:18.891Z,69.1
2016-08-05T01:28:18.164Z,68.91
2016-08-05T01:29:18.861Z,69
2016-08-05T01:30:18.843Z,69.2
2016-08-05T01:31:18.830Z,69.1
2016-08-05T01:32:18.823Z,69.2
2016-08-05T01:33:18.800Z,69.1
2016-08-05T01:34:18.781Z,68.91
2016-08-05T01:35:18.768Z,69.1
2016-08-05T01:36:18.045Z,68.71
2016-08-05T01:37:18.733Z,69
2016-08-05T01:38:18.713Z,69
2016-08-05T01:39:18.707Z,68.43
2016-08-05T01:40:18.689Z,69
2016-08-05T01:41:18.674Z,68.23
2016-08-05T01:42:18.653Z,69.2
2016-08-05T01:43:18.644Z,69
2016-08-05T01:44:18.623Z,68.23
2016-08-05T01:45:18.616Z,68.91
2016-08-05T01:46:18.608Z,69.2
2016-08-05T01:47:18.583Z,69.1
2016-08-05T01:48:18.562Z,68.43
2016-08-05T01:49:18.549Z,69
2016-08-05T01:50:18.533Z,69.07
2016-08-05T01:51:18.515Z,68.33
2016-08-05T01:52:18.503Z,68.43
2016-08-05T01:53:18.484Z,69.29
2016-08-05T01:54:18.496Z,68.52
2016-08-05T01:55:17.744Z,68.91
2016-08-05T01:56:18.443Z,69.1
2016-08-05T01:57:18.425Z,69.2
2016-08-05T01:58:18.414Z,68.71
2016-08-05T01:59:18.391Z,68.43
2016-08-05T02:00:18.383Z,68.33
2016-08-05T02:01:18.363Z,68.23
2016-08-05T02:02:18.356Z,69
2016-08-05T02:03:18.332Z,68.62
2016-08-05T02:04:18.321Z,69.2
2016-08-05T02:05:18.300Z,68.23
2016-08-05T02:06:18.300Z,69.29
2016-08-05T02:07:18.272Z,69.2
2016-08-05T02:08:18.256Z,69.39
2016-08-05T02:09:18.239Z,68.81
2016-08-05T02:10:18.226Z,69.1
2016-08-05T02:11:18.211Z,69.2
2016-08-05T02:12:17.479Z,69.29
2016-08-05T02:13:18.177Z,68.91
2016-08-05T02:14:18.168Z,69
2016-08-05T02:15:18.144Z,69
2016-08-05T02:16:17.418Z,68.62
2016-08-05T02:17:18.118Z,68.91
2016-08-05T02:18:18.099Z,69.07
2016-08-05T02:19:18.089Z,69.1
2016-08-05T02:20:18.072Z,68.68
2016-08-05T02:21:18.054Z,69
2016-08-05T02:22:18.043Z,68.97
2016-08-05T02:23:18.024Z,68.97
2016-08-05T02:24:18.012Z,69
2016-08-05T02:25:17.991Z,68.81
2016-08-05T02:26:17.272Z,68.91
2016-08-05T02:27:17.968Z,69
2016-08-05T02:28:17.946Z,68.23
2016-08-05T02:29:17.933Z,69.45
2016-08-05T02:30:17.910Z,69.1
2016-08-05T02:31:17.901Z,69
2016-08-05T02:32:17.885Z,68.71
2016-08-05T02:33:17.875Z,69.1
2016-08-05T02:34:17.854Z,68.91
2016-08-05T02:35:17.837Z,69.26
2016-08-05T02:36:17.816Z,68.71
2016-08-05T02:37:17.810Z,69
2016-08-05T02:38:17.789Z,68.71
2016-08-05T02:39:17.783Z,69
2016-08-05T02:40:17.758Z,69.29
2016-08-05T02:41:17.032Z,68.52
2016-08-05T02:42:17.725Z,68.33
2016-08-05T02:43:17.709Z,68.87
2016-08-05T02:44:17.693Z,69
2016-08-05T02:45:17.688Z,69.1
2016-08-05T02:46:17.666Z,68.23
2016-08-05T02:47:17.650Z,68.71
2016-08-05T02:48:17.636Z,68.43
2016-08-05T02:49:17.624Z,69.26
2016-08-05T02:50:17.614Z,68.33
2016-08-05T02:51:17.588Z,68.43
2016-08-05T02:52:17.576Z,68.23
2016-08-05T02:53:17.552Z,68.29
2016-08-05T02:54:17.544Z,69.2
2016-08-05T02:55:17.525Z,69.16
2016-08-05T02:56:17.516Z,68.68
2016-08-05T02:57:17.504Z,69
2016-08-05T02:58:17.480Z,68.81
2016-08-05T02:59:17.464Z,69.1
2016-08-05T03:00:16.741Z,69.2
2016-08-05T03:01:17.429Z,69
2016-08-05T03:02:17.416Z,69.29
2016-08-05T03:03:17.403Z,69.1
2016-08-05T03:04:17.392Z,69.07
2016-08-05T03:05:17.371Z,69
2016-08-05T03:06:17.353Z,69
2016-08-05T03:07:17.342Z,69.1
2016-08-05T03:08:17.336Z,69.16
2016-08-05T03:09:17.304Z,68.97
2016-08-05T03:10:17.293Z,69.1
2016-08-05T03:11:17.277Z,69.2
2016-08-05T03:12:17.258Z,68.52
2016-08-05T03:13:17.242Z,68.91
2016-08-05T03:14:16.524Z,68.81
2016-08-05T03:15:17.217Z,69.1
2016-08-05T03:16:17.204Z,69.16
2016-08-05T03:17:17.188Z,69.16
2016-08-05T03:18:17.160Z,68.77
2016-08-05T03:19:17.151Z,68.97
2016-08-05T03:20:17.137Z,69.45
2016-08-05T03:21:17.123Z,68.87
2016-08-05T03:22:17.101Z,69.1
2016-08-05T03:23:17.086Z,68.87
2016-08-05T03:24:17.073Z,69
2016-08-05T03:25:17.062Z,68.81
2016-08-05T03:26:17.046Z,69.16
2016-08-05T03:27:17.030Z,69.1
2016-08-05T03:28:17.013Z,68.91
2016-08-05T03:29:17.001Z,69
2016-08-05T03:30:16.978Z,69.16
2016-08-05T03:31:16.966Z,69.1
2016-08-05T03:32:16.950Z,69.07
2016-08-05T03:33:16.936Z,68.81
2016-08-05T03:34:16.916Z,68.77
2016-08-05T03:35:16.898Z,68.77
2016-08-05T03:36:16.890Z,68.87
2016-08-05T03:37:16.875Z,68.91
2016-08-05T03:38:16.855Z,68.87
2016-08-05T03:39:16.842Z,68.77
2016-08-05T03:40:16.826Z,69.07
2016-08-05T03:41:16.809Z,68.97
2016-08-05T03:42:16.090Z,68.97
2016-08-05T03:43:16.782Z,68.77
2016-08-05T03:44:16.763Z,69.16
2016-08-05T03:45:16.041Z,69.16
2016-08-05T03:46:16.734Z,69.1
2016-08-05T03:47:16.712Z,68.77
2016-08-05T03:48:15.999Z,68.87
2016-08-05T03:49:16.685Z,69.16
2016-08-05T03:50:16.673Z,69.2
2016-08-05T03:51:16.652Z,69
2016-08-05T03:52:16.634Z,69.2
2016-08-05T03:53:16.620Z,68.97
2016-08-05T03:54:16.612Z,68.87
2016-08-05T03:55:16.593Z,68.59
2016-08-05T03:56:15.869Z,68.62
2016-08-05T03:57:16.561Z,68.97
2016-08-05T03:58:16.547Z,68.59
2016-08-05T03:59:16.528Z,68.87
2016-08-05T04:00:16.514Z,68.77
2016-08-05T04:01:16.502Z,68.62
2016-08-05T04:02:16.482Z,68.77
2016-08-05T04:03:16.475Z,68.81
2016-08-05T04:04:16.449Z,68.77
2016-08-05T04:05:16.439Z,68.77
2016-08-05T04:06:16.422Z,69.26
2016-08-05T04:07:16.406Z,68.81
2016-08-05T04:08:16.391Z,68.68
2016-08-05T04:09:16.378Z,68.91
2016-08-05T04:10:16.359Z,68.68
2016-08-05T04:11:16.343Z,68.97
2016-08-05T04:12:16.335Z,68.77
2016-08-05T04:13:16.315Z,69.45
2016-08-05T04:14:16.298Z,69.35
2016-08-05T04:15:16.283Z,69.26
2016-08-05T04:16:16.277Z,69.16
2016-08-05T04:17:16.252Z,69.07
2016-08-05T04:18:16.233Z,69.35
2016-08-05T04:19:16.219Z,69.1
2016-08-05T04:20:16.211Z,69.29
2016-08-05T04:21:16.193Z,69
2016-08-05T04:22:16.171Z,68.87
2016-08-05T04:23:16.165Z,69.35
2016-08-05T04:24:16.149Z,69.35
2016-08-05T04:25:16.127Z,69.39
2016-08-05T04:26:16.115Z,69.16
2016-08-05T04:27:16.104Z,69.16
2016-08-05T04:28:16.076Z,69.29
2016-08-05T04:29:16.065Z,69.29
2016-08-05T04:30:16.052Z,69.35
2016-08-05T04:31:16.032Z,69
2016-08-05T04:32:16.017Z,68.59
2016-08-05T04:33:15.998Z,68.77
2016-08-05T04:34:15.995Z,69.45
2016-08-05T04:35:15.979Z,68.68
2016-08-05T04:36:15.243Z,69.49
2016-08-05T04:37:15.936Z,68.71
2016-08-05T04:38:15.221Z,68.77
2016-08-05T04:39:15.906Z,68.59
2016-08-05T04:40:15.898Z,69
2016-08-05T04:41:15.875Z,68.77
2016-08-05T04:42:15.867Z,68.77
2016-08-05T04:43:15.854Z,68.77
2016-08-05T04:44:15.835Z,68.59
2016-08-05T04:45:15.813Z,68.77
2016-08-05T04:46:15.806Z,68.77
2016-08-05T04:47:15.779Z,68.77
2016-08-05T04:48:15.774Z,69.07
2016-08-05T04:49:15.753Z,68.59
2016-08-05T04:50:15.730Z,68.87
2016-08-05T04:51:15.720Z,68.87
2016-08-05T04:52:15.710Z,68.77
2016-08-05T04:53:15.689Z,68.68
2016-08-05T04:54:15.679Z,69.26
2016-08-05T04:55:15.663Z,69.16
2016-08-05T04:56:15.642Z,68.68
2016-08-05T04:57:15.627Z,69
2016-08-05T04:58:15.615Z,68.81
2016-08-05T04:59:15.595Z,68.97
2016-08-05T05:00:15.583Z,69.16
2016-08-05T05:01:15.569Z,68.77
2016-08-05T05:02:15.546Z,69.29
2016-08-05T05:03:15.535Z,69.07
2016-08-05T05:04:15.515Z,69.07
2016-08-05T05:05:14.794Z,68.87
2016-08-05T05:06:15.486Z,68.87
2016-08-05T05:07:15.473Z,68.68
2016-08-05T05:08:15.462Z,68.77
2016-08-05T05:09:15.441Z,68.77
2016-08-05T05:10:15.420Z,68.87
2016-08-05T05:11:15.409Z,68.97
2016-08-05T05:12:15.395Z,69.07
2016-08-05T05:13:15.374Z,69.07
2016-08-05T05:14:15.362Z,68.87
2016-08-05T05:15:15.352Z,69.07
2016-08-05T05:16:15.331Z,68.81
2016-08-05T05:17:15.313Z,69.16
2016-08-05T05:18:15.305Z,69
2016-08-05T05:19:15.283Z,68.77
2016-08-05T05:20:15.274Z,69.39
2016-08-05T05:21:15.253Z,69
2016-08-05T05:22:15.247Z,68.59
2016-08-05T05:23:15.228Z,68.77
2016-08-05T05:24:15.211Z,68.77
2016-08-05T05:25:15.192Z,68.97
2016-08-05T05:26:15.177Z,68.62
2016-08-05T05:27:15.158Z,69.16
2016-08-05T05:28:15.148Z,69.07
2016-08-05T05:29:15.128Z,69.29
2016-08-05T05:30:15.109Z,68.71
2016-08-05T05:31:15.091Z,68.97
2016-08-05T05:32:15.077Z,68.87
2016-08-05T05:33:15.066Z,68.77
2016-08-05T05:34:15.057Z,69.16
2016-08-05T05:35:15.038Z,68.62
2016-08-05T05:36:15.022Z,68.39
2016-08-05T05:37:15.002Z,68.1
2016-08-05T05:38:14.987Z,68.77
2016-08-05T05:39:14.969Z,68.23
2016-08-05T05:40:14.956Z,68.62
2016-08-05T05:41:14.943Z,68.13
2016-08-05T05:42:14.928Z,68.39
2016-08-05T05:43:14.907Z,68.29
2016-08-05T05:44:14.901Z,68.19
2016-08-05T05:45:14.883Z,68.77
2016-08-05T05:46:14.860Z,68.59
2016-08-05T05:47:14.851Z,68.29
2016-08-05T05:48:14.848Z,68.59
2016-08-05T05:49:14.827Z,68.59
2016-08-05T05:50:14.800Z,68.77
2016-08-05T05:51:14.790Z,68.59
2016-08-05T05:52:14.771Z,68.39
2016-08-05T05:53:14.763Z,68.1
2016-08-05T05:54:14.735Z,68.39
2016-08-05T05:55:14.724Z,68.19
2016-08-05T05:56:14.707Z,67.81
2016-08-05T05:57:14.711Z,68.04
2016-08-05T05:58:14.680Z,68.1
2016-08-05T05:59:13.949Z,67.91
2016-08-05T06:00:14.643Z,68.01
2016-08-05T06:01:14.641Z,67.81
2016-08-05T06:02:14.626Z,68.29
2016-08-05T06:03:14.612Z,67.91
2016-08-05T06:04:13.876Z,68.1
2016-08-05T06:05:14.569Z,67.81
2016-08-05T06:06:14.554Z,68.01
2016-08-05T06:07:14.537Z,67.81
2016-08-05T06:08:14.537Z,68.01
2016-08-05T06:09:14.516Z,67.81
2016-08-05T06:10:14.493Z,68.29
2016-08-05T06:11:13.783Z,68.1
2016-08-05T06:12:14.460Z,68.97
2016-08-05T06:13:14.441Z,69.16
2016-08-05T06:14:14.433Z,69.74
2016-08-05T06:15:14.418Z,69.74
2016-08-05T06:16:14.402Z,69.64
2016-08-05T06:17:14.387Z,69.74
2016-08-05T06:18:14.367Z,69.74
2016-08-05T06:19:14.350Z,69.55
2016-08-05T06:20:14.334Z,69.55
2016-08-05T06:21:13.605Z,69.64
2016-08-05T06:22:14.306Z,69.74
2016-08-05T06:23:14.287Z,69.64
2016-08-05T06:24:14.268Z,69.26
2016-08-05T06:25:14.258Z,69.64
2016-08-05T06:27:14.224Z,69.93
2016-08-05T06:28:14.208Z,69.68
2016-08-05T06:29:14.191Z,69.45
2016-08-05T06:30:14.184Z,69.84
2016-08-05T06:31:14.165Z,69.45
2016-08-05T06:32:14.142Z,69.97
2016-08-05T06:33:14.135Z,70.13
2016-08-05T06:34:14.111Z,69.45
2016-08-05T06:35:14.101Z,69.74
2016-08-05T06:36:14.079Z,69.55
2016-08-05T06:37:14.078Z,69.74
2016-08-05T06:38:14.065Z,69.74
2016-08-05T06:39:14.042Z,69.55
2016-08-05T06:40:14.024Z,69.64
2016-08-05T06:42:13.990Z,69.55
2016-08-05T06:43:13.978Z,69.55
2016-08-05T06:44:13.962Z,69.64
2016-08-05T06:45:13.941Z,69.26
2016-08-05T06:46:13.931Z,69.26
2016-08-05T06:47:13.917Z,69.55
2016-08-05T06:48:13.897Z,69.35
2016-08-05T06:49:13.881Z,69
2016-08-05T06:50:13.869Z,69.26
2016-08-05T06:51:13.848Z,69.26
2016-08-05T06:52:13.841Z,69.29
2016-08-05T06:53:13.817Z,69.87
2016-08-05T06:54:13.805Z,69.35
2016-08-05T06:55:13.795Z,69.07
2016-08-05T06:57:13.762Z,69.16
2016-08-05T06:58:13.745Z,69.35
2016-08-05T06:59:13.721Z,69.07
2016-08-05T07:00:13.705Z,69.35
2016-08-05T07:01:13.700Z,69
2016-08-05T07:02:13.676Z,68.97
2016-08-05T07:03:13.667Z,69.39
2016-08-05T07:04:13.644Z,69.35
2016-08-05T07:05:13.628Z,69.55
2016-08-05T07:06:13.611Z,69.35
2016-08-05T07:07:13.598Z,69.26
2016-08-05T07:08:13.581Z,69.26
2016-08-05T07:09:13.568Z,68.87
2016-08-05T07:10:13.553Z,69.2
2016-08-05T07:12:13.517Z,68.97
2016-08-05T07:13:13.531Z,68.77
2016-08-05T07:14:13.492Z,68.81
2016-08-05T07:15:13.480Z,68.97
2016-08-05T07:16:13.458Z,68.77
2016-08-05T07:17:13.450Z,68.68
2016-08-05T07:18:13.426Z,68.68
2016-08-05T07:19:13.418Z,68.77
2016-08-05T07:20:13.396Z,69.45
2016-08-05T07:21:13.376Z,68.77
2016-08-05T07:22:13.363Z,68.71
2016-08-05T07:23:13.349Z,68.01
2016-08-05T07:24:13.338Z,68.49
2016-08-05T07:25:13.314Z,68.26
2016-08-05T07:26:13.304Z,69.23
2016-08-05T07:27:12.575Z,68.9
2016-08-05T07:28:13.271Z,69.09
2016-08-05T07:29:13.257Z,69.48
2016-08-05T07:30:13.248Z,69.48
2016-08-05T07:31:13.223Z,69.29
2016-08-05T07:32:13.217Z,69.38
2016-08-05T07:33:13.200Z,69.67
2016-08-05T07:34:13.178Z,69.57
2016-08-05T07:35:13.163Z,69.29
2016-08-05T07:36:13.158Z,69.73
2016-08-05T07:37:13.130Z,69.45
2016-08-05T07:38:13.112Z,69.64
2016-08-05T07:39:13.097Z,69.64
2016-08-05T07:40:13.090Z,69.15
2016-08-05T07:41:13.067Z,68.87
2016-08-05T07:42:13.052Z,69.19
2016-08-05T07:43:13.036Z,69.25
2016-08-05T07:44:13.019Z,69.25
2016-08-05T07:45:13.004Z,69.83
2016-08-05T07:46:12.987Z,69.87
2016-08-05T07:47:12.966Z,69.54
2016-08-05T07:48:12.961Z,69.64
2016-08-05T07:49:12.937Z,69.87
2016-08-05T07:50:12.924Z,69.96
2016-08-05T07:51:12.907Z,69.19
2016-08-05T07:52:12.891Z,69.09
2016-08-05T07:53:12.878Z,68.9
2016-08-05T07:54:12.856Z,69.32
2016-08-05T07:55:12.863Z,68.55
2016-08-05T07:56:12.827Z,69.03
2016-08-05T07:57:12.809Z,68.74
2016-08-05T07:58:12.797Z,69.03
2016-08-05T07:59:12.778Z,69.13
2016-08-05T08:00:12.765Z,68.59
2016-08-05T08:01:12.038Z,68.19
2016-08-05T08:02:12.731Z,68.39
2016-08-05T08:03:12.008Z,68.97
2016-08-05T08:04:12.695Z,68.39
2016-08-05T08:05:12.694Z,68.39
2016-08-05T08:06:12.688Z,68.39
2016-08-05T08:07:12.649Z,68.77
2016-08-05T08:08:12.642Z,68.68
2016-08-05T08:09:12.626Z,68.59
2016-08-05T08:10:12.609Z,68.77
2016-08-05T08:11:12.594Z,68.77
2016-08-05T08:12:12.579Z,68.59
2016-08-05T08:13:12.555Z,68.59
2016-08-05T08:14:12.543Z,68.77
2016-08-05T08:15:12.528Z,68.68
2016-08-05T08:16:12.512Z,68.29
2016-08-05T08:17:12.492Z,68.87
2016-08-05T08:18:12.477Z,68.77
2016-08-05T08:19:12.462Z,68.29
2016-08-05T08:20:12.441Z,68.68
2016-08-05T08:21:12.429Z,68.39
2016-08-05T08:22:12.415Z,68.77
2016-08-05T08:23:12.392Z,68.29
2016-08-05T08:24:12.380Z,68.68
2016-08-05T08:25:12.379Z,68.1
2016-08-05T08:26:12.348Z,68.59
2016-08-05T08:27:12.331Z,68.39
2016-08-05T08:28:12.321Z,68.1
2016-08-05T08:29:12.305Z,68.19
2016-08-05T08:30:12.290Z,68.1
2016-08-05T08:31:12.274Z,67.91
2016-08-05T08:32:12.254Z,68.01
2016-08-05T08:33:11.533Z,67.71
2016-08-05T08:34:12.226Z,67.71
2016-08-05T08:35:12.209Z,67.71
2016-08-05T08:36:12.196Z,68.1
2016-08-05T08:37:12.175Z,68.01
2016-08-05T08:38:12.160Z,68.1
2016-08-05T08:39:12.140Z,67.71
2016-08-05T08:40:12.135Z,67.81
2016-08-05T08:41:12.109Z,68.01
2016-08-05T08:42:12.096Z,67.71
2016-08-05T08:43:12.083Z,67.71
2016-08-05T08:44:12.070Z,67.71
2016-08-05T08:45:12.051Z,67.81
2016-08-05T08:46:12.029Z,67.62
2016-08-05T08:47:12.014Z,67.62
2016-08-05T08:48:11.993Z,67.52
2016-08-05T08:49:11.990Z,67.43
2016-08-05T08:50:11.978Z,67.04
2016-08-05T08:51:11.953Z,67.14
2016-08-05T08:52:11.934Z,67.04
2016-08-05T08:53:11.922Z,67.14
2016-08-05T08:54:11.903Z,67.14
2016-08-05T08:55:11.897Z,66.94
2016-08-05T08:56:11.875Z,67.23
2016-08-05T08:57:11.860Z,66.94
2016-08-05T08:58:11.845Z,67.14
2016-08-05T08:59:11.827Z,67.17
2016-08-05T09:00:11.808Z,67.33
2016-08-05T09:01:11.795Z,67.27
2016-08-05T09:02:11.780Z,67.23
2016-08-05T09:03:11.055Z,66.85
2016-08-05T09:04:11.751Z,66.85
2016-08-05T09:05:11.731Z,66.97
2016-08-05T09:06:11.722Z,67.07
2016-08-05T09:07:11.695Z,66.94
2016-08-05T09:08:11.686Z,66.97
2016-08-05T09:09:11.669Z,67.27
2016-08-05T09:10:11.655Z,67.17
2016-08-05T09:11:11.647Z,67.17
2016-08-05T09:12:11.626Z,67.07
2016-08-05T09:13:11.605Z,67.17
2016-08-05T09:14:11.592Z,67.17
2016-08-05T09:15:11.576Z,66.97
2016-08-05T09:16:11.568Z,67.07
2016-08-05T09:17:11.544Z,67.07
2016-08-05T09:18:11.532Z,67.23
2016-08-05T09:19:11.511Z,67.17
2016-08-05T09:20:11.508Z,67.55
2016-08-05T09:21:11.482Z,67.07
2016-08-05T09:22:11.468Z,67.04
2016-08-05T09:23:11.449Z,67.23
2016-08-05T09:24:11.445Z,67.17
2016-08-05T09:25:11.420Z,67.14
2016-08-05T09:26:11.408Z,67.14
2016-08-05T09:27:11.388Z,67.04
2016-08-05T09:28:11.375Z,67.17
2016-08-05T09:29:11.362Z,67.23
2016-08-05T09:30:11.343Z,67.07
2016-08-05T09:31:11.328Z,67.17
2016-08-05T09:32:11.304Z,67.27
2016-08-05T09:33:11.301Z,67.17
2016-08-05T09:34:11.274Z,67.27
2016-08-05T09:35:11.257Z,67.07
2016-08-05T09:36:11.247Z,67.43
2016-08-05T09:37:11.228Z,68.19
2016-08-05T09:38:11.213Z,68.45
2016-08-05T09:39:11.203Z,68.71
2016-08-05T09:40:11.175Z,66.78
2016-08-05T09:41:11.162Z,66.97
2016-08-05T09:42:11.158Z,66.49
2016-08-05T09:43:11.150Z,67.65
2016-08-05T09:44:11.117Z,68.8
2016-08-05T09:45:11.112Z,69.06
2016-08-05T09:46:11.088Z,68.38
2016-08-05T09:47:11.075Z,67.84
2016-08-05T09:48:11.062Z,67.74
2016-08-05T09:49:11.045Z,68
2016-08-05T09:50:11.027Z,68.68
2016-08-05T09:51:11.006Z,68.87
2016-08-05T09:52:10.995Z,68.77
2016-08-05T09:53:10.976Z,69.15
2016-08-05T09:54:10.966Z,68.29
2016-08-05T09:55:10.950Z,68.77
2016-08-05T09:56:10.926Z,68.48
2016-08-05T09:57:10.905Z,68.61
2016-08-05T09:58:10.897Z,68.04
2016-08-05T09:59:10.880Z,67.84
2016-08-05T10:00:10.159Z,67.65
2016-08-05T10:01:10.850Z,67.74
2016-08-05T10:02:10.830Z,67.74
2016-08-05T10:03:10.821Z,67.94
2016-08-05T10:04:10.802Z,68.45
2016-08-05T10:05:10.787Z,68.13
2016-08-05T10:06:10.767Z,68.04
2016-08-05T10:07:10.755Z,68.32
2016-08-05T10:08:10.743Z,67.94
2016-08-05T10:09:10.719Z,68.23
2016-08-05T10:10:10.705Z,67.65
2016-08-05T10:11:10.694Z,67.68
2016-08-05T10:12:09.960Z,68.23
2016-08-05T10:13:10.657Z,68.07
2016-08-05T10:14:10.634Z,67.94
2016-08-05T10:15:10.627Z,67.74
2016-08-05T10:16:10.608Z,67.65
2016-08-05T10:17:10.590Z,67.36
2016-08-05T10:18:10.577Z,67.68
2016-08-05T10:19:10.577Z,67.16
2016-08-05T10:20:10.544Z,67.4
2016-08-05T10:21:10.529Z,66.91
2016-08-05T10:22:10.516Z,66.82
2016-08-05T10:23:10.493Z,66.62
2016-08-05T10:24:10.476Z,66.82
2016-08-05T10:25:10.474Z,66.52
2016-08-05T10:26:10.452Z,66.52
2016-08-05T10:27:10.433Z,66.43
2016-08-05T10:28:10.410Z,66.14
2016-08-05T10:29:10.404Z,66.24
2016-08-05T10:30:10.383Z,66.04
2016-08-05T10:31:10.371Z,65.66
2016-08-05T10:32:10.355Z,66.04
2016-08-05T10:33:10.348Z,66.04
2016-08-05T10:34:10.328Z,66.24
2016-08-05T10:35:10.309Z,66.14
2016-08-05T10:36:10.289Z,65.27
2016-08-05T10:37:10.270Z,65.37
2016-08-05T10:38:09.544Z,65.37
2016-08-05T10:39:09.532Z,65.78
2016-08-05T10:40:10.225Z,65.66
2016-08-05T10:41:10.209Z,65.3
2016-08-05T10:42:10.199Z,65.01
2016-08-05T10:43:10.172Z,65.01
2016-08-05T10:44:10.163Z,64.82
2016-08-05T10:45:10.146Z,65.17
2016-08-05T10:46:10.133Z,65.27
2016-08-05T10:47:10.561Z,64.98
2016-08-05T10:48:09.394Z,65.56
2016-08-05T10:49:10.074Z,64.79
2016-08-05T10:50:10.061Z,65.17
2016-08-05T10:51:10.039Z,65.17
2016-08-05T10:52:10.024Z,65.2
2016-08-05T10:53:10.017Z,65.56
2016-08-05T10:54:09.997Z,65.56
2016-08-05T10:55:09.981Z,65.17
2016-08-05T10:56:09.969Z,65.08
2016-08-05T10:57:09.947Z,65.17
2016-08-05T10:58:09.941Z,64.89
2016-08-05T10:59:09.916Z,64.98
2016-08-05T11:00:09.902Z,65.27
2016-08-05T11:01:09.892Z,65.47
2016-08-05T11:02:09.871Z,65.66
2016-08-05T11:03:09.857Z,65.11
2016-08-05T11:04:09.835Z,64.92
2016-08-05T11:05:09.820Z,65.2
2016-08-05T11:06:09.818Z,65.01
2016-08-05T11:07:09.808Z,65.2
2016-08-05T11:08:09.781Z,65.3
2016-08-05T11:09:09.775Z,64.82
2016-08-05T11:10:09.748Z,64.53
2016-08-05T11:11:09.740Z,65.11
2016-08-05T11:12:09.714Z,64.43
2016-08-05T11:13:09.709Z,64.34
2016-08-05T11:14:09.687Z,64.28
2016-08-05T11:15:09.676Z,64.18
2016-08-05T11:16:09.652Z,64.47
2016-08-05T11:17:09.647Z,64.37
2016-08-05T11:18:09.614Z,64.66
2016-08-05T11:19:09.593Z,64.95
2016-08-05T11:20:09.588Z,64.66
2016-08-05T11:21:08.872Z,64.76
2016-08-05T11:22:09.551Z,64.95
2016-08-05T11:23:09.546Z,65.14
2016-08-05T11:24:09.531Z,64.95
2016-08-05T11:25:09.514Z,64.95
2016-08-05T11:26:09.488Z,64.66
2016-08-05T11:27:09.469Z,64.76
2016-08-05T11:28:09.460Z,64.76
2016-08-05T11:29:09.457Z,64.95
2016-08-05T11:30:09.427Z,64.95
2016-08-05T11:31:09.416Z,64.76
2016-08-05T11:32:09.406Z,64.47
2016-08-05T11:33:09.383Z,65.05
2016-08-05T11:34:08.681Z,64.37
2016-08-05T11:35:09.349Z,64.37
2016-08-05T11:36:09.346Z,64.5
2016-08-05T11:37:09.326Z,64.5
2016-08-05T11:38:09.306Z,64.98
2016-08-05T11:39:09.289Z,64.79
2016-08-05T11:40:09.266Z,64.4
2016-08-05T11:41:08.546Z,64.31
2016-08-05T11:42:09.253Z,64.4
2016-08-05T11:43:09.217Z,64.4
2016-08-05T11:44:09.217Z,64.59
2016-08-05T11:45:09.195Z,64.4
2016-08-05T11:46:09.178Z,64.31
2016-08-05T11:47:09.158Z,64.4
2016-08-05T11:48:09.160Z,64.31
2016-08-05T11:49:09.127Z,64.21
2016-08-05T11:50:09.110Z,64.4
2016-08-05T11:51:09.092Z,64.69
2016-08-05T11:52:09.080Z,64.69
2016-08-05T11:53:09.069Z,64.01
2016-08-05T11:54:09.060Z,64.59
2016-08-05T11:55:09.048Z,64.01
2016-08-05T11:56:09.032Z,63.53
2016-08-05T11:57:08.541Z,63.53
2016-08-05T11:58:08.997Z,63.76
2016-08-05T11:59:08.978Z,64.5
2016-08-05T12:00:08.961Z,63.53
2016-08-05T12:01:08.950Z,63.43
2016-08-05T12:02:08.933Z,63.63
2016-08-05T12:03:08.918Z,63.43
2016-08-05T12:04:08.897Z,63.66
2016-08-05T12:05:08.884Z,64.31
2016-08-05T12:06:08.860Z,64.01
2016-08-05T12:07:08.849Z,64.21
2016-08-05T12:08:08.835Z,64.59
2016-08-05T12:09:08.814Z,64.43
2016-08-05T12:10:08.799Z,64.72
2016-08-05T12:11:08.783Z,64.5
2016-08-05T12:13:08.766Z,64.72
2016-08-05T12:14:08.737Z,64.98
2016-08-05T12:15:08.727Z,65.08
2016-08-05T12:16:08.705Z,64.79
2016-08-05T12:17:08.691Z,64.59
2016-08-05T12:18:08.673Z,64.98
2016-08-05T12:19:08.662Z,64.59
2016-08-05T12:20:08.647Z,64.59
2016-08-05T12:21:08.632Z,64.79
2016-08-05T12:22:08.616Z,64.59
2016-08-05T12:23:08.594Z,64.4
2016-08-05T12:24:08.588Z,64.5
2016-08-05T12:25:08.578Z,64.59
2016-08-05T12:26:08.551Z,64.59
2016-08-05T12:27:08.542Z,65.08
2016-08-05T12:28:08.529Z,64.98
2016-08-05T12:29:08.509Z,64.89
2016-08-05T12:30:08.491Z,64.79
2016-08-05T12:31:08.475Z,64.69
2016-08-05T12:32:07.751Z,64.79
2016-08-05T12:33:08.445Z,64.98
2016-08-05T12:34:08.431Z,64.89
2016-08-05T12:35:08.415Z,65.08
2016-08-05T12:36:08.396Z,64.79
2016-08-05T12:37:08.382Z,65.56
2016-08-05T12:38:08.370Z,64.59
2016-08-05T12:39:08.354Z,64.79
2016-08-05T12:40:08.335Z,64.79
2016-08-05T12:41:08.322Z,64.89
2016-08-05T12:42:08.311Z,64.89
2016-08-05T12:43:08.287Z,64.79
2016-08-05T12:44:07.563Z,64.79
2016-08-05T12:45:08.258Z,64.98
2016-08-05T12:46:07.536Z,64.79
2016-08-05T12:47:08.235Z,64.59
2016-08-05T12:48:08.216Z,64.4
2016-08-05T12:49:08.203Z,65.08
2016-08-05T12:50:08.187Z,64.79
2016-08-05T12:51:08.175Z,64.79
2016-08-05T12:52:08.154Z,64.95
2016-08-05T12:53:08.143Z,64.69
2016-08-05T12:54:08.294Z,64.98
2016-08-05T12:55:08.122Z,64.79
2016-08-05T12:56:08.096Z,64.47
2016-08-05T12:57:08.072Z,64.11
2016-08-05T12:58:08.067Z,64.11
2016-08-05T12:59:08.047Z,64.4
2016-08-05T13:00:08.029Z,64.5
2016-08-05T13:01:08.015Z,63.34
2016-08-05T13:02:08.008Z,62.82
2016-08-05T13:03:07.983Z,62.54
2016-08-05T13:04:07.971Z,61.38
2016-08-05T13:05:07.954Z,61.77
2016-08-05T13:06:07.228Z,61.38
2016-08-05T13:07:07.923Z,62.25
2016-08-05T13:08:07.911Z,61.57